sensor_id;sensor_type;location;lat;lon;timestamp;pressure;altitude;pressure_sealevel;temperature;humidity
49122;BME280;35529;44.342;25.944;2022-12-11T00:00:50;98793.41;;;10.12;100.00
49122;BME280;35529;44.342;25.944;2022-12-11T00:03:16;98796.06;;;10.12;100.00
49122;BME280;35529;44.342;25.944;2022-12-11T00:05:44;98795.25;;;10.11;100.00
49122;BME280;35529;44.342;25.944;2022-12-11T00:08:13;98791.31;;;10.14;100.00
49122;BME280;35529;44.342;25.944;2022-12-11T00:10:48;98790.63;;;10.18;100.00
49122;BME280;35529;44.342;25.944;2022-12-11T00:13:14;98782.44;;;10.20;100.00
49122;BME280;35529;44.342;25.944;2022-12-11T00:15:40;98793.16;;;10.25;100.00
49122;BME280;35529;44.342;25.944;2022-12-11T00:18:07;98795.31;;;10.28;100.00
49122;BME280;35529;44.342;25.944;2022-12-11T00:20:36;98792.78;;;10.33;100.00
49122;BME280;35529;44.342;25.944;2022-12-11T00:23:03;98789.41;;;10.38;100.00
49122;BME280;35529;44.342;25.944;2022-12-11T00:25:30;98779.72;;;10.44;100.00
49122;BME280;35529;44.342;25.944;2022-12-11T00:27:56;98778.75;;;10.50;100.00
49122;BME280;35529;44.342;25.944;2022-12-11T00:30:24;98780.13;;;10.52;100.00
49122;BME280;35529;44.342;25.944;2022-12-11T00:32:53;98779.75;;;10.61;100.00
49122;BME280;35529;44.342;25.944;2022-12-11T00:35:22;98757.47;;;10.62;100.00
49122;BME280;35529;44.342;25.944;2022-12-11T00:37:51;98736.00;;;10.63;100.00
49122;BME280;35529;44.342;25.944;2022-12-11T00:40:17;98722.19;;;10.61;100.00
49122;BME280;35529;44.342;25.944;2022-12-11T00:42:43;98743.41;;;10.61;100.00
49122;BME280;35529;44.342;25.944;2022-12-11T00:45:09;98731.75;;;10.62;100.00
49122;BME280;35529;44.342;25.944;2022-12-11T00:47:38;98717.44;;;10.63;100.00
49122;BME280;35529;44.342;25.944;2022-12-11T00:50:04;98703.59;;;10.61;100.00
49122;BME280;35529;44.342;25.944;2022-12-11T00:52:31;98712.59;;;10.60;100.00
49122;BME280;35529;44.342;25.944;2022-12-11T00:54:57;98704.41;;;10.62;100.00
49122;BME280;35529;44.342;25.944;2022-12-11T00:57:23;98700.72;;;10.63;100.00
49122;BME280;35529;44.342;25.944;2022-12-11T00:59:49;98696.78;;;10.65;100.00
49122;BME280;35529;44.342;25.944;2022-12-11T01:02:15;98687.28;;;10.69;100.00
49122;BME280;35529;44.342;25.944;2022-12-11T01:04:43;98661.78;;;10.68;100.00
49122;BME280;35529;44.342;25.944;2022-12-11T01:07:09;98660.16;;;10.67;100.00
49122;BME280;35529;44.342;25.944;2022-12-11T01:09:35;98662.34;;;10.70;100.00
49122;BME280;35529;44.342;25.944;2022-12-11T01:12:20;98666.38;;;10.73;100.00
49122;BME280;35529;44.342;25.944;2022-12-11T01:14:46;98670.16;;;10.77;100.00
49122;BME280;35529;44.342;25.944;2022-12-11T01:17:12;98663.56;;;10.80;100.00
49122;BME280;35529;44.342;25.944;2022-12-11T01:19:40;98658.25;;;10.80;100.00
49122;BME280;35529;44.342;25.944;2022-12-11T01:22:06;98656.72;;;10.84;100.00
49122;BME280;35529;44.342;25.944;2022-12-11T01:24:33;98658.88;;;10.87;100.00
49122;BME280;35529;44.342;25.944;2022-12-11T01:26:59;98659.91;;;10.86;100.00
49122;BME280;35529;44.342;25.944;2022-12-11T01:29:25;98643.97;;;10.86;100.00
49122;BME280;35529;44.342;25.944;2022-12-11T01:31:51;98649.53;;;10.84;100.00
49122;BME280;35529;44.342;25.944;2022-12-11T01:34:19;98651.16;;;10.85;100.00
49122;BME280;35529;44.342;25.944;2022-12-11T01:36:47;98636.59;;;10.88;100.00
49122;BME280;35529;44.342;25.944;2022-12-11T01:39:13;98632.66;;;10.90;100.00
49122;BME280;35529;44.342;25.944;2022-12-11T01:41:55;98634.47;;;10.90;100.00
49122;BME280;35529;44.342;25.944;2022-12-11T01:46:51;98619.13;;;10.92;100.00
49122;BME280;35529;44.342;25.944;2022-12-11T01:49:18;98620.16;;;10.91;100.00
49122;BME280;35529;44.342;25.944;2022-12-11T01:51:53;98606.88;;;10.91;100.00
49122;BME280;35529;44.342;25.944;2022-12-11T01:54:25;98595.78;;;10.94;100.00
49122;BME280;35529;44.342;25.944;2022-12-11T01:56:55;98588.06;;;10.93;100.00
49122;BME280;35529;44.342;25.944;2022-12-11T01:59:23;98584.34;;;10.94;100.00
49122;BME280;35529;44.342;25.944;2022-12-11T02:02:08;98583.06;;;10.96;100.00
49122;BME280;35529;44.342;25.944;2022-12-11T02:04:37;98577.25;;;10.99;100.00
49122;BME280;35529;44.342;25.944;2022-12-11T02:07:04;98578.88;;;11.00;100.00
49122;BME280;35529;44.342;25.944;2022-12-11T02:09:31;98584.97;;;11.01;100.00
49122;BME280;35529;44.342;25.944;2022-12-11T02:17:04;98569.09;;;11.06;100.00
49122;BME280;35529;44.342;25.944;2022-12-11T02:22:12;98549.16;;;11.03;100.00
49122;BME280;35529;44.342;25.944;2022-12-11T02:27:35;98545.44;;;11.04;100.00
49122;BME280;35529;44.342;25.944;2022-12-11T02:30:07;98543.03;;;11.03;100.00
49122;BME280;35529;44.342;25.944;2022-12-11T02:32:36;98539.88;;;11.06;100.00
49122;BME280;35529;44.342;25.944;2022-12-11T02:37:50;98530.13;;;11.12;100.00
49122;BME280;35529;44.342;25.944;2022-12-11T02:40:21;98522.41;;;11.10;100.00
49122;BME280;35529;44.342;25.944;2022-12-11T02:42:48;98518.47;;;11.13;100.00
49122;BME280;35529;44.342;25.944;2022-12-11T02:45:15;98522.72;;;11.14;100.00
49122;BME280;35529;44.342;25.944;2022-12-11T02:47:43;98522.47;;;11.15;100.00
49122;BME280;35529;44.342;25.944;2022-12-11T02:50:11;98524.88;;;11.17;100.00
49122;BME280;35529;44.342;25.944;2022-12-11T02:52:38;98521.75;;;11.20;100.00
49122;BME280;35529;44.342;25.944;2022-12-11T02:55:06;98521.22;;;11.23;100.00
49122;BME280;35529;44.342;25.944;2022-12-11T02:57:37;98519.69;;;11.27;100.00
49122;BME280;35529;44.342;25.944;2022-12-11T03:00:05;98508.81;;;11.29;100.00
49122;BME280;35529;44.342;25.944;2022-12-11T03:02:33;98501.88;;;11.28;100.00
49122;BME280;35529;44.342;25.944;2022-12-11T03:04:59;98496.34;;;11.29;100.00
49122;BME280;35529;44.342;25.944;2022-12-11T03:07:26;98485.47;;;11.31;100.00
49122;BME280;35529;44.342;25.944;2022-12-11T03:09:54;98472.66;;;11.28;100.00
49122;BME280;35529;44.342;25.944;2022-12-11T03:12:21;98477.44;;;11.26;100.00
49122;BME280;35529;44.342;25.944;2022-12-11T03:14:49;98494.16;;;11.26;100.00
49122;BME280;35529;44.342;25.944;2022-12-11T03:19:46;98478.53;;;11.30;100.00
49122;BME280;35529;44.342;25.944;2022-12-11T03:22:18;98474.84;;;11.31;100.00
49122;BME280;35529;44.342;25.944;2022-12-11T03:24:52;98466.03;;;11.30;100.00
49122;BME280;35529;44.342;25.944;2022-12-11T03:30:08;98453.53;;;11.26;100.00
49122;BME280;35529;44.342;25.944;2022-12-11T03:32:37;98444.19;;;11.23;100.00
49122;BME280;35529;44.342;25.944;2022-12-11T03:35:07;98452.16;;;11.23;100.00
49122;BME280;35529;44.342;25.944;2022-12-11T03:37:37;98440.97;;;11.21;100.00
49122;BME280;35529;44.342;25.944;2022-12-11T03:40:06;98443.63;;;11.21;100.00
49122;BME280;35529;44.342;25.944;2022-12-11T03:42:35;98442.59;;;11.22;100.00
49122;BME280;35529;44.342;25.944;2022-12-11T03:45:02;98428.25;;;11.23;100.00
49122;BME280;35529;44.342;25.944;2022-12-11T03:47:29;98420.53;;;11.21;100.00
49122;BME280;35529;44.342;25.944;2022-12-11T03:49:57;98412.06;;;11.24;100.00
49122;BME280;35529;44.342;25.944;2022-12-11T03:52:25;98415.03;;;11.28;100.00
49122;BME280;35529;44.342;25.944;2022-12-11T03:54:52;98413.97;;;11.29;100.00
49122;BME280;35529;44.342;25.944;2022-12-11T03:57:20;98417.69;;;11.28;100.00
49122;BME280;35529;44.342;25.944;2022-12-11T03:59:47;98408.41;;;11.31;100.00
49122;BME280;35529;44.342;25.944;2022-12-11T04:02:14;98415.31;;;11.32;100.00
49122;BME280;35529;44.342;25.944;2022-12-11T04:04:40;98428.91;;;11.35;100.00
49122;BME280;35529;44.342;25.944;2022-12-11T04:07:07;98419.88;;;11.36;100.00
49122;BME280;35529;44.342;25.944;2022-12-11T04:09:33;98419.38;;;11.39;100.00
49122;BME280;35529;44.342;25.944;2022-12-11T04:11:59;98425.25;;;11.42;100.00
49122;BME280;35529;44.342;25.944;2022-12-11T04:14:26;98419.94;;;11.42;100.00
49122;BME280;35529;44.342;25.944;2022-12-11T04:17:10;98427.91;;;11.42;100.00
49122;BME280;35529;44.342;25.944;2022-12-11T04:19:36;98427.06;;;11.41;100.00
49122;BME280;35529;44.342;25.944;2022-12-11T04:22:21;98431.09;;;11.44;100.00
49122;BME280;35529;44.342;25.944;2022-12-11T04:25:06;98431.09;;;11.44;100.00
49122;BME280;35529;44.342;25.944;2022-12-11T04:27:32;98431.09;;;11.44;100.00
49122;BME280;35529;44.342;25.944;2022-12-11T04:30:14;98423.38;;;11.42;100.00
49122;BME280;35529;44.342;25.944;2022-12-11T04:32:41;98418.38;;;11.46;100.00
49122;BME280;35529;44.342;25.944;2022-12-11T04:35:08;98420.22;;;11.45;100.00
49122;BME280;35529;44.342;25.944;2022-12-11T04:37:36;98419.41;;;11.45;100.00
49122;BME280;35529;44.342;25.944;2022-12-11T04:40:03;98416.50;;;11.46;100.00
49122;BME280;35529;44.342;25.944;2022-12-11T04:42:32;98402.69;;;11.44;100.00
49122;BME280;35529;44.342;25.944;2022-12-11T04:45:00;98401.38;;;11.47;100.00
49122;BME280;35529;44.342;25.944;2022-12-11T04:47:26;98404.03;;;11.47;100.00
49122;BME280;35529;44.342;25.944;2022-12-11T04:49:52;98404.25;;;11.45;100.00
49122;BME280;35529;44.342;25.944;2022-12-11T04:52:18;98403.47;;;11.45;100.00
49122;BME280;35529;44.342;25.944;2022-12-11T04:54:45;98404.03;;;11.47;100.00
49122;BME280;35529;44.342;25.944;2022-12-11T04:57:13;98405.88;;;11.46;100.00
49122;BME280;35529;44.342;25.944;2022-12-11T04:59:39;98407.47;;;11.47;100.00
49122;BME280;35529;44.342;25.944;2022-12-11T05:02:08;98409.34;;;11.47;100.00
49122;BME280;35529;44.342;25.944;2022-12-11T05:04:36;98404.81;;;11.47;100.00
49122;BME280;35529;44.342;25.944;2022-12-11T05:07:04;98400.28;;;11.48;100.00
49122;BME280;35529;44.342;25.944;2022-12-11T05:09:30;98406.97;;;11.50;100.00
49122;BME280;35529;44.342;25.944;2022-12-11T05:11:57;98410.19;;;11.52;100.00
49122;BME280;35529;44.342;25.944;2022-12-11T05:14:23;98414.97;;;11.55;100.00
49122;BME280;35529;44.342;25.944;2022-12-11T05:16:55;98395.84;;;11.53;100.00
49122;BME280;35529;44.342;25.944;2022-12-11T05:19:24;98404.06;;;11.52;100.00
49122;BME280;35529;44.342;25.944;2022-12-11T05:21:51;98405.16;;;11.56;100.00
49122;BME280;35529;44.342;25.944;2022-12-11T05:24:17;98414.47;;;11.58;100.00
49122;BME280;35529;44.342;25.944;2022-12-11T05:26:43;98410.28;;;11.63;100.00
49122;BME280;35529;44.342;25.944;2022-12-11T05:29:09;98400.72;;;11.67;100.00
49122;BME280;35529;44.342;25.944;2022-12-11T05:31:35;98416.16;;;11.70;100.00
49122;BME280;35529;44.342;25.944;2022-12-11T05:34:01;98418.03;;;11.74;100.00
49122;BME280;35529;44.342;25.944;2022-12-11T05:36:29;98420.50;;;11.81;100.00
49122;BME280;35529;44.342;25.944;2022-12-11T05:38:56;98410.72;;;11.87;100.00
49122;BME280;35529;44.342;25.944;2022-12-11T05:41:24;98419.03;;;11.96;100.00
49122;BME280;35529;44.342;25.944;2022-12-11T05:43:53;98420.13;;;12.00;100.00
49122;BME280;35529;44.342;25.944;2022-12-11T05:46:20;98441.69;;;12.03;100.00
49122;BME280;35529;44.342;25.944;2022-12-11T05:48:47;98440.38;;;12.06;100.00
49122;BME280;35529;44.342;25.944;2022-12-11T05:51:14;98431.84;;;12.04;100.00
49122;BME280;35529;44.342;25.944;2022-12-11T05:53:41;98435.53;;;11.98;100.00
49122;BME280;35529;44.342;25.944;2022-12-11T05:56:09;98434.88;;;11.85;100.00
49122;BME280;35529;44.342;25.944;2022-12-11T05:58:35;98437.75;;;11.79;100.00
49122;BME280;35529;44.342;25.944;2022-12-11T06:01:05;98441.78;;;11.86;100.00
49122;BME280;35529;44.342;25.944;2022-12-11T06:03:31;98454.66;;;11.95;100.00
49122;BME280;35529;44.342;25.944;2022-12-11T06:06:00;98468.81;;;12.00;100.00
49122;BME280;35529;44.342;25.944;2022-12-11T06:08:26;98477.91;;;12.10;100.00
49122;BME280;35529;44.342;25.944;2022-12-11T06:10:52;98463.56;;;12.16;100.00
49122;BME280;35529;44.342;25.944;2022-12-11T06:13:21;98472.66;;;12.20;100.00
49122;BME280;35529;44.342;25.944;2022-12-11T06:15:47;98483.88;;;12.27;100.00
49122;BME280;35529;44.342;25.944;2022-12-11T06:18:16;98479.38;;;12.33;100.00
49122;BME280;35529;44.342;25.944;2022-12-11T06:20:42;98489.22;;;12.27;100.00
49122;BME280;35529;44.342;25.944;2022-12-11T06:23:08;98491.22;;;12.10;100.00
49122;BME280;35529;44.342;25.944;2022-12-11T06:25:36;98495.25;;;11.85;100.00
49122;BME280;35529;44.342;25.944;2022-12-11T06:28:05;98483.47;;;11.76;100.00
49122;BME280;35529;44.342;25.944;2022-12-11T06:30:33;98492.28;;;11.81;100.00
49122;BME280;35529;44.342;25.944;2022-12-11T06:33:02;98505.75;;;11.69;100.00
49122;BME280;35529;44.342;25.944;2022-12-11T06:35:31;98492.81;;;11.51;100.00
49122;BME280;35529;44.342;25.944;2022-12-11T06:38:03;98490.84;;;11.68;100.00
49122;BME280;35529;44.342;25.944;2022-12-11T06:40:29;98513.34;;;11.88;100.00
49122;BME280;35529;44.342;25.944;2022-12-11T06:43:00;98516.69;;;12.05;100.00
49122;BME280;35529;44.342;25.944;2022-12-11T06:45:31;98528.94;;;12.06;100.00
49122;BME280;35529;44.342;25.944;2022-12-11T06:47:59;98529.16;;;12.00;100.00
49122;BME280;35529;44.342;25.944;2022-12-11T06:50:28;98529.56;;;12.14;100.00
49122;BME280;35529;44.342;25.944;2022-12-11T06:52:57;98543.56;;;12.36;100.00
49122;BME280;35529;44.342;25.944;2022-12-11T06:55:26;98555.41;;;12.61;100.00
49122;BME280;35529;44.342;25.944;2022-12-11T06:57:54;98564.81;;;12.74;100.00
49122;BME280;35529;44.342;25.944;2022-12-11T07:00:20;98560.34;;;12.85;100.00
49122;BME280;35529;44.342;25.944;2022-12-11T07:02:52;98562.53;;;12.98;100.00
49122;BME280;35529;44.342;25.944;2022-12-11T07:05:18;98575.41;;;13.17;100.00
49122;BME280;35529;44.342;25.944;2022-12-11T07:07:47;98581.09;;;13.36;100.00
49122;BME280;35529;44.342;25.944;2022-12-11T07:10:15;98576.63;;;13.52;100.00
49122;BME280;35529;44.342;25.944;2022-12-11T07:12:42;98588.13;;;13.63;100.00
49122;BME280;35529;44.342;25.944;2022-12-11T07:15:08;98572.66;;;13.70;100.00
49122;BME280;35529;44.342;25.944;2022-12-11T07:17:34;98572.41;;;13.77;100.00
49122;BME280;35529;44.342;25.944;2022-12-11T07:20:00;98570.81;;;13.86;100.00
49122;BME280;35529;44.342;25.944;2022-12-11T07:22:27;98569.22;;;13.95;100.00
49122;BME280;35529;44.342;25.944;2022-12-11T07:24:53;98572.97;;;14.04;100.00
49122;BME280;35529;44.342;25.944;2022-12-11T07:27:19;98586.84;;;14.17;100.00
49122;BME280;35529;44.342;25.944;2022-12-11T07:29:45;98589.81;;;14.25;100.00
49122;BME280;35529;44.342;25.944;2022-12-11T07:32:11;98586.31;;;14.35;100.00
49122;BME280;35529;44.342;25.944;2022-12-11T07:34:38;98594.84;;;14.42;100.00
49122;BME280;35529;44.342;25.944;2022-12-11T07:37:06;98606.59;;;14.52;100.00
49122;BME280;35529;44.342;25.944;2022-12-11T07:39:32;98607.94;;;14.59;100.00
49122;BME280;35529;44.342;25.944;2022-12-11T07:42:00;98619.97;;;14.67;100.00
49122;BME280;35529;44.342;25.944;2022-12-11T07:44:28;98623.97;;;14.75;100.00
49122;BME280;35529;44.342;25.944;2022-12-11T07:46:54;98637.06;;;14.87;100.00
49122;BME280;35529;44.342;25.944;2022-12-11T07:49:21;98635.97;;;14.93;100.00
49122;BME280;35529;44.342;25.944;2022-12-11T07:51:47;98639.16;;;15.00;100.00
49122;BME280;35529;44.342;25.944;2022-12-11T07:54:14;98649.81;;;15.05;100.00
49122;BME280;35529;44.342;25.944;2022-12-11T07:56:42;98650.63;;;15.11;100.00
49122;BME280;35529;44.342;25.944;2022-12-11T07:59:08;98649.53;;;15.17;100.00
49122;BME280;35529;44.342;25.944;2022-12-11T08:01:39;98652.97;;;15.28;100.00
49122;BME280;35529;44.342;25.944;2022-12-11T08:04:08;98647.59;;;15.38;100.00
49122;BME280;35529;44.342;25.944;2022-12-11T08:06:36;98653.69;;;15.49;100.00
49122;BME280;35529;44.342;25.944;2022-12-11T08:09:03;98650.16;;;15.64;100.00
49122;BME280;35529;44.342;25.944;2022-12-11T08:11:32;98641.81;;;15.81;100.00
49122;BME280;35529;44.342;25.944;2022-12-11T08:13:58;98638.78;;;15.98;100.00
49122;BME280;35529;44.342;25.944;2022-12-11T08:16:27;98637.84;;;16.18;100.00
49122;BME280;35529;44.342;25.944;2022-12-11T08:18:54;98629.16;;;16.37;100.00
49122;BME280;35529;44.342;25.944;2022-12-11T08:21:22;98636.53;;;16.50;100.00
49122;BME280;35529;44.342;25.944;2022-12-11T08:23:49;98632.44;;;16.58;100.00
49122;BME280;35529;44.342;25.944;2022-12-11T08:26:19;98640.97;;;16.65;100.00
49122;BME280;35529;44.342;25.944;2022-12-11T08:28:46;98637.25;;;16.61;100.00
49122;BME280;35529;44.342;25.944;2022-12-11T08:31:15;98637.78;;;16.58;100.00
49122;BME280;35529;44.342;25.944;2022-12-11T08:33:42;98642.31;;;16.63;100.00
49122;BME280;35529;44.342;25.944;2022-12-11T08:36:10;98637.38;;;16.75;100.00
49122;BME280;35529;44.342;25.944;2022-12-11T08:38:36;98637.78;;;16.87;100.00
49122;BME280;35529;44.342;25.944;2022-12-11T08:41:15;98629.97;;;16.96;100.00
49122;BME280;35529;44.342;25.944;2022-12-11T08:43:41;98629.28;;;17.09;100.00
49122;BME280;35529;44.342;25.944;2022-12-11T08:46:10;98617.25;;;17.07;100.00
49122;BME280;35529;44.342;25.944;2022-12-11T08:48:42;98622.09;;;17.05;100.00
49122;BME280;35529;44.342;25.944;2022-12-11T08:51:10;98621.31;;;17.04;100.00
49122;BME280;35529;44.342;25.944;2022-12-11T08:53:37;98628.72;;;17.13;100.00
49122;BME280;35529;44.342;25.944;2022-12-11T08:56:12;98623.13;;;17.09;100.00
49122;BME280;35529;44.342;25.944;2022-12-11T08:58:39;98619.66;;;17.08;100.00
49122;BME280;35529;44.342;25.944;2022-12-11T09:01:06;98628.06;;;16.97;100.00
49122;BME280;35529;44.342;25.944;2022-12-11T09:03:34;98633.47;;;16.91;100.00
49122;BME280;35529;44.342;25.944;2022-12-11T09:06:02;98631.09;;;16.85;100.00
49122;BME280;35529;44.342;25.944;2022-12-11T09:08:28;98632.47;;;16.82;100.00
49122;BME280;35529;44.342;25.944;2022-12-11T09:10:54;98622.03;;;16.81;100.00
49122;BME280;35529;44.342;25.944;2022-12-11T09:13:23;98614.38;;;16.69;100.00
49122;BME280;35529;44.342;25.944;2022-12-11T09:15:49;98611.78;;;16.64;100.00
49122;BME280;35529;44.342;25.944;2022-12-11T09:18:17;98607.25;;;16.59;100.00
49122;BME280;35529;44.342;25.944;2022-12-11T09:20:46;98616.88;;;16.60;100.00
49122;BME280;35529;44.342;25.944;2022-12-11T09:23:16;98617.66;;;16.61;100.00
49122;BME280;35529;44.342;25.944;2022-12-11T09:25:45;98611.59;;;16.50;100.00
49122;BME280;35529;44.342;25.944;2022-12-11T09:28:13;98613.00;;;16.42;100.00
49122;BME280;35529;44.342;25.944;2022-12-11T09:30:41;98604.22;;;16.36;100.00
49122;BME280;35529;44.342;25.944;2022-12-11T09:33:12;98614.91;;;16.41;100.00
49122;BME280;35529;44.342;25.944;2022-12-11T09:35:41;98627.19;;;16.48;100.00
49122;BME280;35529;44.342;25.944;2022-12-11T09:38:09;98637.28;;;16.56;100.00
49122;BME280;35529;44.342;25.944;2022-12-11T09:40:40;98654.44;;;16.55;100.00
49122;BME280;35529;44.342;25.944;2022-12-11T09:43:15;98651.75;;;16.55;100.00
49122;BME280;35529;44.342;25.944;2022-12-11T09:45:46;98648.31;;;16.49;100.00
49122;BME280;35529;44.342;25.944;2022-12-11T09:48:13;98643.91;;;16.34;100.00
49122;BME280;35529;44.342;25.944;2022-12-11T09:50:45;98639.09;;;16.26;100.00
49122;BME280;35529;44.342;25.944;2022-12-11T09:58:37;98631.50;;;16.04;100.00
49122;BME280;35529;44.342;25.944;2022-12-11T10:01:17;98639.25;;;16.05;100.00
49122;BME280;35529;44.342;25.944;2022-12-11T10:14:44;98619.41;;;16.75;100.00
49122;BME280;35529;44.342;25.944;2022-12-11T10:17:37;98628.97;;;16.87;100.00
49122;BME280;35529;44.342;25.944;2022-12-11T10:20:13;98618.22;;;16.92;100.00
49122;BME280;35529;44.342;25.944;2022-12-11T10:22:42;98625.69;;;16.95;100.00
49122;BME280;35529;44.342;25.944;2022-12-11T10:25:13;98618.28;;;16.82;100.00
49122;BME280;35529;44.342;25.944;2022-12-11T10:27:41;98616.63;;;16.86;100.00
49122;BME280;35529;44.342;25.944;2022-12-11T10:30:44;98634.59;;;16.85;100.00
49122;BME280;35529;44.342;25.944;2022-12-11T10:35:29;98608.28;;;16.92;100.00
49122;BME280;35529;44.342;25.944;2022-12-11T10:37:58;98616.34;;;17.17;100.00
49122;BME280;35529;44.342;25.944;2022-12-11T10:40:47;98638.13;;;17.34;100.00
49122;BME280;35529;44.342;25.944;2022-12-11T10:43:14;98638.44;;;17.52;100.00
49122;BME280;35529;44.342;25.944;2022-12-11T10:45:51;98633.00;;;17.57;100.00
49122;BME280;35529;44.342;25.944;2022-12-11T10:48:20;98633.59;;;17.54;100.00
49122;BME280;35529;44.342;25.944;2022-12-11T10:50:57;98634.34;;;17.35;100.00
49122;BME280;35529;44.342;25.944;2022-12-11T10:53:23;98622.94;;;17.00;100.00
49122;BME280;35529;44.342;25.944;2022-12-11T10:55:56;98615.56;;;16.87;100.00
49122;BME280;35529;44.342;25.944;2022-12-11T10:58:26;98610.19;;;16.92;100.00
49122;BME280;35529;44.342;25.944;2022-12-11T11:01:23;98617.16;;;16.88;100.00
49122;BME280;35529;44.342;25.944;2022-12-11T11:04:01;98614.75;;;16.86;100.00
49122;BME280;35529;44.342;25.944;2022-12-11T11:06:29;98612.34;;;16.90;100.00
49122;BME280;35529;44.342;25.944;2022-12-11T11:08:56;98619.78;;;16.93;100.00
49122;BME280;35529;44.342;25.944;2022-12-11T11:11:30;98611.84;;;16.83;100.00
49122;BME280;35529;44.342;25.944;2022-12-11T11:14:05;98605.34;;;16.89;100.00
49122;BME280;35529;44.342;25.944;2022-12-11T11:16:31;98592.06;;;16.79;100.00
49122;BME280;35529;44.342;25.944;2022-12-11T11:19:01;98599.13;;;16.69;100.00
49122;BME280;35529;44.342;25.944;2022-12-11T11:21:27;98602.88;;;16.68;100.00
49122;BME280;35529;44.342;25.944;2022-12-11T11:23:54;98607.66;;;16.71;100.00
49122;BME280;35529;44.342;25.944;2022-12-11T11:26:21;98607.59;;;16.76;100.00
49122;BME280;35529;44.342;25.944;2022-12-11T11:28:49;98604.34;;;16.80;100.00
49122;BME280;35529;44.342;25.944;2022-12-11T11:31:16;98610.28;;;16.76;100.00
49122;BME280;35529;44.342;25.944;2022-12-11T11:33:50;98611.19;;;16.67;100.00
49122;BME280;35529;44.342;25.944;2022-12-11T11:36:19;98616.59;;;16.62;100.00
49122;BME280;35529;44.342;25.944;2022-12-11T11:38:53;98617.16;;;16.58;100.00
49122;BME280;35529;44.342;25.944;2022-12-11T11:41:25;98611.59;;;16.50;100.00
49122;BME280;35529;44.342;25.944;2022-12-11T11:43:55;98612.19;;;16.47;100.00
49122;BME280;35529;44.342;25.944;2022-12-11T11:46:24;98617.56;;;16.41;100.00
49122;BME280;35529;44.342;25.944;2022-12-11T11:48:59;98624.03;;;16.35;100.00
49122;BME280;35529;44.342;25.944;2022-12-11T11:51:30;98631.53;;;16.38;100.00
49122;BME280;35529;44.342;25.944;2022-12-11T11:53:59;98636.84;;;16.44;100.00
49122;BME280;35529;44.342;25.944;2022-12-11T11:56:33;98629.38;;;16.40;100.00
49122;BME280;35529;44.342;25.944;2022-12-11T12:01:46;98637.38;;;16.46;100.00
49122;BME280;35529;44.342;25.944;2022-12-11T12:04:12;98635.28;;;16.37;100.00
49122;BME280;35529;44.342;25.944;2022-12-11T12:10:18;98635.34;;;16.27;100.00
49122;BME280;35529;44.342;25.944;2022-12-11T12:38:41;98629.22;;;15.82;100.00
49122;BME280;35529;44.342;25.944;2022-12-11T12:46:42;98641.09;;;15.55;100.00
49122;BME280;35529;44.342;25.944;2022-12-11T12:49:12;98653.97;;;15.48;100.00
49122;BME280;35529;44.342;25.944;2022-12-11T12:51:43;98656.19;;;15.35;100.00
49122;BME280;35529;44.342;25.944;2022-12-11T12:54:11;98665.28;;;15.29;100.00
49122;BME280;35529;44.342;25.944;2022-12-11T12:56:42;98661.25;;;15.27;100.00
49122;BME280;35529;44.342;25.944;2022-12-11T12:59:25;98667.44;;;15.17;100.00
49122;BME280;35529;44.342;25.944;2022-12-11T13:01:54;98678.44;;;15.05;100.00
49122;BME280;35529;44.342;25.944;2022-12-11T13:04:27;98678.19;;;14.86;100.00
49122;BME280;35529;44.342;25.944;2022-12-11T13:06:53;98684.84;;;14.63;100.00
49122;BME280;35529;44.342;25.944;2022-12-11T13:09:25;98677.63;;;14.48;100.00
49122;BME280;35529;44.342;25.944;2022-12-11T13:11:53;98679.25;;;14.33;100.00
49122;BME280;35529;44.342;25.944;2022-12-11T13:14:29;98680.53;;;14.15;100.00
49122;BME280;35529;44.342;25.944;2022-12-11T13:17:07;98684.00;;;14.05;100.00
49122;BME280;35529;44.342;25.944;2022-12-11T13:19:48;98692.75;;;13.96;100.00
49122;BME280;35529;44.342;25.944;2022-12-11T13:27:26;98689.13;;;13.54;100.00
49122;BME280;35529;44.342;25.944;2022-12-11T13:30:06;98690.69;;;13.45;100.00
49122;BME280;35529;44.342;25.944;2022-12-11T13:32:32;98690.06;;;13.32;100.00
49122;BME280;35529;44.342;25.944;2022-12-11T13:35:03;98686.03;;;13.19;100.00
49122;BME280;35529;44.342;25.944;2022-12-11T13:39:56;98689.88;;;13.01;100.00
49122;BME280;35529;44.342;25.944;2022-12-11T13:42:32;98698.88;;;12.90;100.00
49122;BME280;35529;44.342;25.944;2022-12-11T13:44:59;98711.28;;;12.79;100.00
49122;BME280;35529;44.342;25.944;2022-12-11T13:47:25;98715.00;;;12.73;100.00
49122;BME280;35529;44.342;25.944;2022-12-11T13:49:53;98715.47;;;12.65;100.00
49122;BME280;35529;44.342;25.944;2022-12-11T13:52:21;98723.59;;;12.53;100.00
49122;BME280;35529;44.342;25.944;2022-12-11T13:54:48;98714.72;;;12.42;100.00
49122;BME280;35529;44.342;25.944;2022-12-11T13:57:16;98727.66;;;12.33;100.00
49122;BME280;35529;44.342;25.944;2022-12-11T13:59:46;98734.75;;;12.22;100.00
49122;BME280;35529;44.342;25.944;2022-12-11T14:04:42;98774.91;;;11.99;100.00
49122;BME280;35529;44.342;25.944;2022-12-11T14:07:08;98778.97;;;11.84;100.00
49122;BME280;35529;44.342;25.944;2022-12-11T14:09:36;98784.47;;;11.78;100.00
49122;BME280;35529;44.342;25.944;2022-12-11T14:12:04;98792.56;;;11.66;100.00
49122;BME280;35529;44.342;25.944;2022-12-11T14:14:41;98768.22;;;11.35;100.00
49122;BME280;35529;44.342;25.944;2022-12-11T14:17:12;98763.22;;;10.70;100.00